createdAt,value
2022-12-04T00:00:15.859Z,99203.78
2022-12-04T00:03:03.218Z,99201.22
2022-12-04T00:05:50.460Z,99195.34
2022-12-04T00:08:37.591Z,99191.16
2022-12-04T00:11:27.457Z,99193.69
2022-12-04T00:14:16.390Z,99201.41
2022-12-04T00:17:03.780Z,99207.28
2022-12-04T00:19:51.036Z,99196.31
2022-12-04T00:22:38.036Z,99192.06
2022-12-04T00:25:25.451Z,99197.13
2022-12-04T00:28:12.565Z,99186.97
2022-12-04T00:31:00.931Z,99186.97
2022-12-04T00:33:48.643Z,99183.63
2022-12-04T00:36:36.072Z,99177.00
2022-12-04T00:39:23.122Z,99175.34
2022-12-04T00:42:10.174Z,99175.50
2022-12-04T00:44:57.555Z,99175.66
2022-12-04T00:47:46.708Z,99188.34
2022-12-04T00:50:33.682Z,99182.53
2022-12-04T00:53:20.995Z,99183.50
2022-12-04T00:56:11.215Z,99183.50
2022-12-04T00:59:01.241Z,99177.63
2022-12-04T01:01:48.684Z,99181.06
2022-12-04T01:04:37.133Z,99177.63
2022-12-04T01:07:24.680Z,99182.69
2022-12-04T01:10:14.686Z,99176.78
2022-12-04T01:13:01.841Z,99172.63
2022-12-04T01:15:49.344Z,99173.44
2022-12-04T01:18:36.383Z,99165.81
2022-12-04T01:21:25.069Z,99155.59
2022-12-04T01:24:12.371Z,99164.94
2022-12-04T01:26:59.235Z,99155.59
2022-12-04T01:29:46.395Z,99152.16
2022-12-04T01:32:33.485Z,99174.16
2022-12-04T01:35:20.527Z,99175.91
2022-12-04T01:38:09.051Z,99154.69
2022-12-04T01:40:57.534Z,99158.81
2022-12-04T01:43:44.870Z,99180.72
2022-12-04T01:46:32.081Z,99173.06
2022-12-04T01:49:25.449Z,99166.25
2022-12-04T01:52:17.175Z,99178.78
2022-12-04T01:55:06.843Z,99168.53
2022-12-04T01:57:54.353Z,99159.31
2022-12-04T02:00:41.698Z,99172.81
2022-12-04T02:03:28.680Z,99162.66
2022-12-04T02:06:15.963Z,99173.69
2022-12-04T02:09:03.268Z,99157.56
2022-12-04T02:11:59.502Z,99162.56
2022-12-04T02:14:58.954Z,99173.56
2022-12-04T02:18:02.027Z,99171.75
2022-12-04T02:20:59.873Z,99168.41
2022-12-04T02:24:22.221Z,99168.31
2022-12-04T02:27:23.048Z,99171.75
2022-12-04T02:30:14.546Z,99167.41
2022-12-04T02:33:08.290Z,99166.50
2022-12-04T02:36:05.976Z,99169.78
2022-12-04T02:38:58.583Z,99165.44
2022-12-04T02:41:50.363Z,99174.69
2022-12-04T02:44:43.531Z,99171.34
2022-12-04T02:47:33.299Z,99177.22
2022-12-04T02:50:23.254Z,99175.50
2022-12-04T02:53:13.929Z,99180.59
2022-12-04T02:56:06.453Z,99183.97
2022-12-04T02:58:57.456Z,99174.53
2022-12-04T03:01:50.871Z,99168.66
2022-12-04T03:04:41.148Z,99169.44
2022-12-04T03:07:37.779Z,99158.41
2022-12-04T03:10:29.811Z,99147.34
2022-12-04T03:13:22.955Z,99144.72
2022-12-04T03:16:15.425Z,99139.66
2022-12-04T03:19:09.483Z,99137.03
2022-12-04T03:22:02.531Z,99137.03
2022-12-04T03:24:53.502Z,99137.03
2022-12-04T03:27:47.709Z,99128.50
2022-12-04T03:30:42.790Z,99132.78
2022-12-04T03:33:36.099Z,99129.31
2022-12-04T03:36:28.022Z,99133.41
2022-12-04T03:39:22.328Z,99126.69
2022-12-04T03:42:15.578Z,99126.69
2022-12-04T03:45:09.371Z,99118.34
2022-12-04T03:48:02.623Z,99112.38
2022-12-04T03:50:54.144Z,99114.00
2022-12-04T03:53:46.769Z,99111.47
2022-12-04T03:56:40.058Z,99115.66
2022-12-04T03:59:32.713Z,99113.09
2022-12-04T04:02:24.497Z,99113.94
2022-12-04T04:05:14.486Z,99119.03
2022-12-04T04:08:19.647Z,99124.91
2022-12-04T04:11:13.693Z,99105.41
2022-12-04T04:14:24.764Z,99112.22
2022-12-04T04:17:38.503Z,99102.94
2022-12-04T04:20:52.703Z,99107.22
2022-12-04T04:24:02.768Z,99111.47
2022-12-04T04:26:51.175Z,99104.75
2022-12-04T04:29:40.727Z,99105.47
2022-12-04T04:32:35.787Z,99099.50
2022-12-04T04:35:28.072Z,99098.63
2022-12-04T04:38:23.442Z,99094.34
2022-12-04T04:41:16.556Z,99097.69
2022-12-04T04:44:13.604Z,99095.91
2022-12-04T04:47:07.652Z,99099.25
2022-12-04T04:49:57.474Z,99085.66
2022-12-04T04:52:50.392Z,99096.66
2022-12-04T04:55:38.308Z,99104.28
2022-12-04T04:58:25.412Z,99086.56
2022-12-04T05:01:16.227Z,99104.28
2022-12-04T05:04:05.282Z,99109.34
2022-12-04T05:06:52.599Z,99112.78
2022-12-04T05:09:41.441Z,99123.66
2022-12-04T05:12:28.808Z,99115.25
2022-12-04T05:15:16.193Z,99116.03
2022-12-04T05:18:03.331Z,99117.69
2022-12-04T05:20:51.727Z,99118.59
2022-12-04T05:23:38.981Z,99118.59
2022-12-04T05:26:26.364Z,99116.97
2022-12-04T05:29:13.620Z,99122.06
2022-12-04T05:32:00.675Z,99116.97
2022-12-04T05:34:49.352Z,99112.69
2022-12-04T05:37:40.695Z,99115.25
2022-12-04T05:40:27.808Z,99114.34
2022-12-04T05:43:15.445Z,99116.78
2022-12-04T05:46:03.135Z,99114.25
2022-12-04T05:48:50.544Z,99112.53
2022-12-04T05:51:37.730Z,99120.13
2022-12-04T05:54:26.512Z,99114.25
2022-12-04T05:57:13.791Z,99122.69
2022-12-04T06:00:00.840Z,99123.53
2022-12-04T06:02:48.053Z,99121.78
2022-12-04T06:05:35.015Z,99115.91
2022-12-04T06:08:22.265Z,99117.59
2022-12-04T06:11:16.412Z,99119.34
2022-12-04T06:14:07.256Z,99117.59
2022-12-04T06:16:54.379Z,99122.59
2022-12-04T06:19:41.734Z,99123.44
2022-12-04T06:22:28.761Z,99123.44
2022-12-04T06:25:15.811Z,99128.50
2022-12-04T06:28:04.592Z,99125.03
2022-12-04T06:30:51.707Z,99119.97
2022-12-04T06:33:40.899Z,99124.25
2022-12-04T06:36:28.539Z,99123.34
2022-12-04T06:39:18.905Z,99120.72
2022-12-04T06:42:06.708Z,99125.00
2022-12-04T06:44:55.083Z,99127.53
2022-12-04T06:47:42.356Z,99117.38
2022-12-04T06:50:29.424Z,99105.47
2022-12-04T06:53:16.419Z,99112.19
2022-12-04T06:56:06.891Z,99113.09
2022-12-04T06:58:56.528Z,99118.09
2022-12-04T07:01:45.142Z,99125.72
2022-12-04T07:04:13.638Z,99123.91
2022-12-04T07:06:43.059Z,99118.84
2022-12-04T07:09:15.645Z,99122.19
2022-12-04T07:11:45.445Z,99125.53
2022-12-04T07:14:15.581Z,99123.75
2022-12-04T07:16:45.859Z,99111.94
2022-12-04T07:19:15.894Z,99111.03
2022-12-04T07:21:45.012Z,99109.31
2022-12-04T07:24:17.167Z,99105.06
2022-12-04T07:26:46.669Z,99108.41
2022-12-04T07:29:15.497Z,99107.59
2022-12-04T07:31:45.699Z,99113.50
2022-12-04T07:34:14.431Z,99114.25
2022-12-04T07:36:43.036Z,99115.94
2022-12-04T07:39:11.735Z,99130.28
2022-12-04T07:41:41.338Z,99131.19
2022-12-04T07:44:10.647Z,99130.28
2022-12-04T07:46:39.399Z,99133.66
2022-12-04T07:49:12.980Z,99129.41
2022-12-04T07:51:41.689Z,99129.41
2022-12-04T07:54:10.290Z,99131.94
2022-12-04T07:56:38.938Z,99123.38
2022-12-04T07:59:07.581Z,99118.31
2022-12-04T08:01:36.226Z,99125.03
2022-12-04T08:04:05.052Z,99128.31
2022-12-04T08:06:36.205Z,99124.13
2022-12-04T08:09:09.720Z,99128.31
2022-12-04T08:11:39.593Z,99126.59
2022-12-04T08:14:09.788Z,99121.50
2022-12-04T08:16:38.574Z,99116.53
2022-12-04T08:19:07.360Z,99120.72
2022-12-04T08:21:37.559Z,99124.13
2022-12-04T08:24:06.863Z,99113.97
2022-12-04T08:26:35.515Z,99114.69
2022-12-04T08:29:06.755Z,99115.53
2022-12-04T08:31:37.455Z,99109.56
2022-12-04T08:34:08.516Z,99113.00
2022-12-04T08:36:38.631Z,99113.72
2022-12-04T08:39:08.227Z,99112.91
2022-12-04T08:41:36.866Z,99113.72
2022-12-04T08:44:06.398Z,99106.00
2022-12-04T08:46:35.083Z,99101.75
2022-12-04T08:49:04.407Z,99117.81
2022-12-04T08:51:36.006Z,99121.91
2022-12-04T08:54:08.833Z,99122.75
2022-12-04T08:56:38.622Z,99127.00
2022-12-04T08:59:07.892Z,99119.28
2022-12-04T09:01:36.677Z,99113.28
2022-12-04T09:04:05.639Z,99124.34
2022-12-04T09:06:34.422Z,99120.91
2022-12-04T09:09:03.100Z,99122.56
2022-12-04T09:11:33.328Z,99109.88
2022-12-04T09:14:04.282Z,99112.41
2022-12-04T09:16:33.260Z,99115.75
2022-12-04T09:19:01.906Z,99116.59
2022-12-04T09:21:30.578Z,99120.75
2022-12-04T09:24:00.723Z,99113.97
2022-12-04T09:26:33.178Z,99122.38
2022-12-04T09:29:04.109Z,99130.91
2022-12-04T09:31:33.629Z,99133.44
2022-12-04T09:34:03.151Z,99134.19
2022-12-04T09:36:31.983Z,99138.38
2022-12-04T09:39:00.579Z,99129.81
2022-12-04T09:42:21.589Z,99123.13
2022-12-04T09:44:59.331Z,99112.03
2022-12-04T09:47:31.971Z,99120.50
2022-12-04T09:50:06.124Z,99114.50
2022-12-04T09:52:50.436Z,99108.59
2022-12-04T09:55:24.699Z,99109.50
2022-12-04T09:58:02.144Z,99113.69
2022-12-04T10:00:33.815Z,99102.72
2022-12-04T10:03:06.119Z,99103.44
2022-12-04T10:05:51.159Z,99096.66
2022-12-04T10:08:24.108Z,99100.00
2022-12-04T10:11:05.474Z,99088.94
2022-12-04T10:14:10.567Z,99094.00
2022-12-04T10:16:54.848Z,99094.81
2022-12-04T10:19:34.958Z,99099.00
2022-12-04T10:22:14.873Z,99088.03
2022-12-04T10:24:48.842Z,99081.22
2022-12-04T10:27:23.623Z,99082.84
2022-12-04T10:29:59.721Z,99075.94
2022-12-04T10:32:31.771Z,99070.88
2022-12-04T10:35:15.723Z,99080.94
2022-12-04T10:37:45.419Z,99075.06
2022-12-04T10:40:22.994Z,99064.78
2022-12-04T10:42:57.323Z,99069.88
2022-12-04T10:45:27.544Z,99061.34
2022-12-04T10:47:56.235Z,99051.19
2022-12-04T10:50:26.054Z,99053.63
2022-12-04T10:52:54.671Z,99047.66
2022-12-04T10:55:32.295Z,99033.31
2022-12-04T10:58:02.805Z,99029.03
2022-12-04T11:00:35.445Z,99033.31
2022-12-04T11:03:10.552Z,99034.94
2022-12-04T11:05:46.925Z,99030.66
2022-12-04T11:08:25.044Z,99024.78
2022-12-04T11:11:00.880Z,99024.78
2022-12-04T11:13:29.859Z,99024.78
2022-12-04T11:16:01.026Z,99024.69
2022-12-04T11:18:32.243Z,99031.47
2022-12-04T11:21:04.320Z,99032.41
2022-12-04T11:23:36.199Z,99025.50
2022-12-04T11:26:06.545Z,99035.66
2022-12-04T11:28:42.553Z,99028.03
2022-12-04T11:31:19.823Z,99031.41
2022-12-04T11:33:52.514Z,99023.78
2022-12-04T11:36:25.365Z,99036.41
2022-12-04T11:39:05.387Z,99038.00
2022-12-04T11:41:34.727Z,99044.84
2022-12-04T11:44:03.513Z,99048.19
2022-12-04T11:46:35.185Z,99046.47
2022-12-04T11:49:04.488Z,99056.56
2022-12-04T11:51:49.371Z,99045.56
2022-12-04T11:54:29.356Z,99053.22
2022-12-04T11:57:13.214Z,99055.75
2022-12-04T12:00:00.596Z,99053.22
2022-12-04T12:02:48.158Z,99060.00
2022-12-04T12:05:38.177Z,99048.13
2022-12-04T12:08:15.497Z,99047.28
2022-12-04T12:10:51.978Z,99042.09
2022-12-04T12:13:32.139Z,99043.75
2022-12-04T12:16:09.235Z,99040.41
2022-12-04T12:19:10.810Z,99045.47
2022-12-04T12:21:50.237Z,99041.31
2022-12-04T12:24:27.204Z,99038.66
2022-12-04T12:27:10.530Z,99037.84
2022-12-04T12:29:54.666Z,99037.84
2022-12-04T12:32:52.346Z,99039.56
2022-12-04T12:35:28.310Z,99037.03
2022-12-04T12:38:03.303Z,99048.03
2022-12-04T12:40:38.060Z,99051.38
2022-12-04T12:43:13.441Z,99049.66
2022-12-04T12:45:49.770Z,99047.03
2022-12-04T12:48:29.962Z,99050.38
2022-12-04T12:51:29.211Z,99052.94
2022-12-04T12:54:01.168Z,99038.56
2022-12-04T12:56:38.390Z,99030.94
2022-12-04T12:59:14.771Z,99020.78
2022-12-04T13:01:49.564Z,99010.59
2022-12-04T13:04:24.126Z,99007.16
2022-12-04T13:07:07.804Z,98990.25
2022-12-04T13:09:43.638Z,98998.63
2022-12-04T13:12:16.570Z,98997.81
2022-12-04T13:14:48.977Z,98992.72
2022-12-04T13:17:25.876Z,98994.34
2022-12-04T13:19:56.804Z,98983.38
2022-12-04T13:22:34.675Z,98988.47
2022-12-04T13:25:21.911Z,98985.94
2022-12-04T13:28:05.112Z,98995.19
2022-12-04T13:30:45.036Z,99002.00
2022-12-04T13:33:53.022Z,99000.28
2022-12-04T13:36:53.534Z,98992.81
2022-12-04T13:39:51.862Z,98991.09
2022-12-04T13:42:25.606Z,98992.81
2022-12-04T13:44:57.365Z,98990.25
2022-12-04T13:47:35.275Z,98975.00
2022-12-04T13:50:28.336Z,98989.47
2022-12-04T13:52:57.971Z,98984.38
2022-12-04T13:55:33.337Z,98974.22
2022-12-04T13:58:05.059Z,98979.28
2022-12-04T14:00:35.963Z,98971.56
2022-12-04T14:03:08.239Z,98975.84
2022-12-04T14:05:43.392Z,98982.53
2022-12-04T14:08:26.782Z,98973.31
2022-12-04T14:11:03.672Z,98972.47
2022-12-04T14:13:44.792Z,98968.22
2022-12-04T14:16:23.959Z,98969.94
2022-12-04T14:18:55.664Z,98969.94
2022-12-04T14:21:25.255Z,98975.84
2022-12-04T14:23:55.011Z,98987.63
2022-12-04T14:29:50.932Z,99009.06
2022-12-04T14:32:26.644Z,99001.53
2022-12-04T14:34:56.335Z,99020.22
2022-12-04T14:37:29.868Z,99014.41
2022-12-04T14:39:59.820Z,99026.31
2022-12-04T14:42:37.473Z,99017.06
2022-12-04T14:45:21.150Z,99011.88
2022-12-04T14:48:08.513Z,99014.50
2022-12-04T14:50:45.891Z,99017.06
2022-12-04T14:53:28.195Z,99014.59
2022-12-04T14:56:08.136Z,99020.50
2022-12-04T14:58:40.156Z,99019.69
2022-12-04T15:01:26.863Z,99022.22
2022-12-04T15:04:00.248Z,99018.06
2022-12-04T15:06:31.902Z,99017.16
2022-12-04T15:09:16.615Z,99016.31
2022-12-04T15:12:26.448Z,99010.44
2022-12-04T15:15:04.354Z,99010.44
2022-12-04T15:17:33.055Z,99003.69
2022-12-04T15:20:12.158Z,99001.16
2022-12-04T15:22:40.883Z,99000.25
2022-12-04T15:25:18.763Z,99002.81
2022-12-04T15:27:48.835Z,99004.44
2022-12-04T15:30:23.173Z,99007.06
2022-12-04T15:32:54.424Z,99012.16
2022-12-04T15:35:27.655Z,99018.94
2022-12-04T15:37:56.946Z,99014.75
2022-12-04T15:40:28.707Z,99020.78
2022-12-04T15:43:16.691Z,99026.75
2022-12-04T15:45:46.688Z,99035.28
2022-12-04T15:48:29.074Z,99029.47
2022-12-04T15:51:01.019Z,99025.31
2022-12-04T15:53:34.275Z,99020.22
2022-12-04T15:56:07.461Z,99018.56
2022-12-04T15:58:38.512Z,99023.66
2022-12-04T16:01:11.285Z,99022.00
2022-12-04T16:03:52.438Z,99024.66
2022-12-04T16:06:25.414Z,99017.88
2022-12-04T16:08:56.533Z,99025.47
2022-12-04T16:11:32.744Z,99018.75
2022-12-04T16:14:18.195Z,99027.19
2022-12-04T16:16:52.518Z,99017.91
2022-12-04T16:19:33.086Z,99022.19
2022-12-04T16:22:03.748Z,99018.84
2022-12-04T16:24:32.413Z,99020.56
2022-12-04T16:27:02.334Z,99022.38
2022-12-04T16:29:31.750Z,99027.56
2022-12-04T16:32:03.737Z,99025.81
2022-12-04T16:34:33.007Z,99029.25
2022-12-04T16:37:02.210Z,99018.28
2022-12-04T16:39:30.814Z,99027.66
2022-12-04T16:41:59.405Z,99031.09
2022-12-04T16:44:28.059Z,99021.03
2022-12-04T16:46:56.751Z,99012.56
2022-12-04T16:49:26.818Z,99010.94
2022-12-04T16:51:55.477Z,99021.09
2022-12-04T16:54:24.075Z,99014.38
2022-12-04T16:56:52.703Z,99010.09
2022-12-04T16:59:21.356Z,99010.94
2022-12-04T17:01:51.620Z,99005.88
2022-12-04T17:04:20.970Z,98999.94
2022-12-04T17:06:51.279Z,98999.22
2022-12-04T17:09:20.141Z,98998.25
2022-12-04T17:11:48.689Z,98993.16
2022-12-04T17:14:17.361Z,98995.69
2022-12-04T17:16:47.339Z,98988.88
2022-12-04T17:19:16.730Z,98984.69
2022-12-04T17:21:46.248Z,98984.69
2022-12-04T17:24:16.530Z,98979.63
2022-12-04T17:26:45.151Z,98973.72
2022-12-04T17:29:13.847Z,98967.00
2022-12-04T17:31:42.601Z,98975.53
2022-12-04T17:34:11.251Z,98972.09
2022-12-04T17:36:39.946Z,98961.13
2022-12-04T17:39:11.668Z,98969.53
2022-12-04T17:41:41.740Z,98972.09
2022-12-04T17:44:10.428Z,98978.97
2022-12-04T17:46:39.087Z,98984.03
2022-12-04T17:49:07.867Z,99001.78
2022-12-04T17:51:37.049Z,99002.56
2022-12-04T17:54:06.552Z,99006.75
2022-12-04T17:56:35.518Z,99000.94
2022-12-04T17:59:06.875Z,99009.38
2022-12-04T18:01:35.863Z,99008.56
2022-12-04T18:04:07.267Z,99011.19
2022-12-04T18:06:39.461Z,99011.09
2022-12-04T18:09:10.436Z,99006.91
2022-12-04T18:11:44.673Z,99006.84
2022-12-04T18:14:19.194Z,99001.81
2022-12-04T18:16:53.104Z,99004.22
2022-12-04T18:19:24.093Z,99007.56
2022-12-04T18:21:55.165Z,99009.31
2022-12-04T18:24:25.263Z,99009.31
2022-12-04T18:26:54.143Z,99017.63
2022-12-04T18:29:26.966Z,99004.94
2022-12-04T18:31:56.386Z,99004.03
2022-12-04T18:34:25.638Z,99009.94
2022-12-04T18:36:54.379Z,99004.84
2022-12-04T18:39:25.523Z,99004.84
2022-12-04T18:41:57.021Z,99004.84
2022-12-04T18:44:27.696Z,99008.22
2022-12-04T18:46:58.091Z,99008.22
2022-12-04T18:49:26.859Z,99015.75
2022-12-04T18:51:55.525Z,99013.22
2022-12-04T18:54:25.162Z,99014.84
2022-12-04T18:56:53.862Z,99011.47
2022-12-04T18:59:25.424Z,99015.66
2022-12-04T19:01:56.026Z,99015.66
2022-12-04T19:04:26.135Z,99007.22
2022-12-04T19:06:56.762Z,99013.91
2022-12-04T19:12:16.935Z,99011.38
2022-12-04T19:14:45.586Z,99017.31
2022-12-04T19:17:17.924Z,99029.09
2022-12-04T19:19:46.727Z,99030.81
2022-12-04T19:22:15.739Z,99020.66
2022-12-04T19:24:44.519Z,99026.56
2022-12-04T19:27:13.368Z,99024.94
2022-12-04T19:29:43.894Z,99041.81
2022-12-04T19:32:13.175Z,99030.81
2022-12-04T19:34:43.803Z,99034.19
2022-12-04T19:37:13.079Z,99040.88
2022-12-04T19:39:41.745Z,99029.91
2022-12-04T19:42:11.541Z,99057.78
2022-12-04T19:44:48.391Z,99057.06
2022-12-04T19:47:18.799Z,99066.31
2022-12-04T19:49:48.863Z,99054.44
2022-12-04T19:52:18.007Z,99062.06
2022-12-04T19:54:46.735Z,99073.03
2022-12-04T19:57:15.765Z,99073.03
2022-12-04T19:59:46.637Z,99068.75
2022-12-04T20:02:16.053Z,99078.09
2022-12-04T20:04:45.087Z,99076.31
2022-12-04T20:07:15.095Z,99072.84
2022-12-04T20:09:52.139Z,99078.84
2022-12-04T20:12:21.184Z,99076.31
2022-12-04T20:14:49.793Z,99082.19
2022-12-04T20:17:18.528Z,99075.38
2022-12-04T20:19:47.155Z,99080.47
2022-12-04T20:22:17.175Z,99070.31
2022-12-04T20:24:45.849Z,99083.00
2022-12-04T20:27:14.488Z,99079.56
2022-12-04T20:29:43.292Z,99083.00
2022-12-04T20:32:11.966Z,99084.66
2022-12-04T20:34:43.703Z,99077.88
2022-12-04T20:37:12.869Z,99084.66
2022-12-04T20:39:43.220Z,99090.56
2022-12-04T20:42:11.917Z,99081.22
2022-12-04T20:44:40.556Z,99081.22
2022-12-04T20:47:09.305Z,99090.56
2022-12-04T20:49:38.227Z,99093.91
2022-12-04T20:52:06.987Z,99096.47
2022-12-04T20:54:41.337Z,99095.66
2022-12-04T20:57:12.873Z,99101.53
2022-12-04T20:59:41.746Z,99099.91
2022-12-04T21:02:14.524Z,99102.44
2022-12-04T21:05:01.827Z,99101.63
2022-12-04T21:07:48.984Z,99108.41
2022-12-04T21:10:35.904Z,99109.34
2022-12-04T21:13:38.104Z,99097.44
2022-12-04T21:16:25.273Z,99105.06
2022-12-04T21:19:15.837Z,99101.78
2022-12-04T21:22:03.219Z,99105.16
2022-12-04T21:24:50.659Z,99093.34
2022-12-04T21:27:38.091Z,99100.97
2022-12-04T21:30:26.560Z,99105.25
2022-12-04T21:33:13.899Z,99096.78
2022-12-04T21:36:05.550Z,99098.44
2022-12-04T21:38:53.462Z,99109.41
2022-12-04T21:41:58.432Z,99103.53
2022-12-04T21:44:45.526Z,99106.06
2022-12-04T21:47:35.927Z,99104.41
2022-12-04T21:50:22.887Z,99108.59
2022-12-04T21:53:10.016Z,99102.72
2022-12-04T21:55:57.658Z,99106.06
2022-12-04T21:58:45.170Z,99107.78
2022-12-04T22:01:32.376Z,99112.88
2022-12-04T22:04:21.160Z,99111.16
2022-12-04T22:07:08.433Z,99115.34
2022-12-04T22:09:56.293Z,99119.50
2022-12-04T22:12:49.871Z,99116.97
2022-12-04T22:15:39.322Z,99119.56
2022-12-04T22:18:26.587Z,99120.41
2022-12-04T22:21:17.047Z,99123.03
2022-12-04T22:24:06.095Z,99122.22
2022-12-04T22:26:53.279Z,99120.41
2022-12-04T22:29:55.593Z,99122.22
2022-12-04T22:32:42.405Z,99112.03
2022-12-04T22:35:29.709Z,99117.13
2022-12-04T22:38:18.068Z,99118.75
2022-12-04T22:41:08.476Z,99123.84
2022-12-04T22:43:55.696Z,99138.28
2022-12-04T22:46:43.159Z,99128.13
2022-12-04T22:49:30.519Z,99141.63
2022-12-04T22:52:19.209Z,99139.09
2022-12-04T22:55:08.908Z,99144.28
2022-12-04T22:57:56.021Z,99142.53
2022-12-04T23:00:43.083Z,99140.00
2022-12-04T23:03:30.197Z,99149.34
2022-12-04T23:06:19.407Z,99152.69
2022-12-04T23:09:09.980Z,99144.38
2022-12-04T23:11:59.060Z,99151.97
2022-12-04T23:14:46.078Z,99152.78
2022-12-04T23:17:33.084Z,99156.16
2022-12-04T23:20:20.286Z,99144.38
2022-12-04T23:23:07.584Z,99153.63
2022-12-04T23:25:54.679Z,99151.09
2022-12-04T23:28:43.607Z,99146.81
2022-12-04T23:31:31.396Z,99141.72
2022-12-04T23:34:18.752Z,99146.81
2022-12-04T23:37:05.733Z,99148.53
2022-12-04T23:39:52.979Z,99146.00
2022-12-04T23:42:40.563Z,99154.34
2022-12-04T23:45:28.955Z,99152.69
2022-12-04T23:48:15.924Z,99152.69
2022-12-04T23:51:03.003Z,99159.44
2022-12-04T23:53:51.819Z,99166.34
2022-12-04T23:56:39.166Z,99158.72
2022-12-04T23:59:26.143Z,99168.03
